createdAt,value
2018-03-24T00:00:35.959Z,98773.08
2018-03-24T00:03:03.430Z,98771.50
2018-03-24T00:05:30.907Z,98774.45
2018-03-24T00:07:58.362Z,98772.95
2018-03-24T00:10:25.838Z,98768.52
2018-03-24T00:12:53.299Z,98766.36
2018-03-24T00:15:20.854Z,98755.34
2018-03-24T00:17:48.312Z,98765.13
2018-03-24T00:20:15.795Z,98760.57
2018-03-24T00:22:43.247Z,98754.11
2018-03-24T00:25:10.726Z,98755.28
2018-03-24T00:27:38.178Z,98756.22
2018-03-24T00:30:05.655Z,98752.71
2018-03-24T00:32:33.111Z,98747.83
2018-03-24T00:35:00.602Z,98753.73
2018-03-24T00:37:28.066Z,98743.86
2018-03-24T00:39:55.524Z,98743.74
2018-03-24T00:42:23.005Z,98744.03
2018-03-24T00:44:50.460Z,98750.02
2018-03-24T00:47:17.949Z,98747.59
2018-03-24T00:49:45.408Z,98750.00
2018-03-24T00:52:12.886Z,98745.44
2018-03-24T00:54:40.363Z,98741.02
2018-03-24T00:57:07.851Z,98745.76
2018-03-24T00:59:35.321Z,98744.33
2018-03-24T01:02:02.804Z,98741.11
2018-03-24T01:04:30.264Z,98744.83
2018-03-24T01:06:57.742Z,98738.41
2018-03-24T01:09:25.200Z,98740.39
2018-03-24T01:11:52.674Z,98745.73
2018-03-24T01:14:20.134Z,98747.31
2018-03-24T01:16:47.607Z,98747.81
2018-03-24T01:19:15.067Z,98756.58
2018-03-24T01:21:42.543Z,98758.66
2018-03-24T01:24:10.014Z,98750.86
2018-03-24T01:26:37.492Z,98749.10
2018-03-24T01:29:04.947Z,98747.06
2018-03-24T01:31:32.435Z,98742.93
2018-03-24T01:33:59.895Z,98744.97
2018-03-24T01:36:27.375Z,98747.42
2018-03-24T01:38:54.839Z,98742.59
2018-03-24T01:41:22.319Z,98741.00
2018-03-24T01:43:49.783Z,98741.01
2018-03-24T01:46:17.269Z,98750.32
2018-03-24T01:48:44.744Z,98747.68
2018-03-24T01:51:12.235Z,98743.45
2018-03-24T01:53:51.507Z,98744.02
2018-03-24T01:56:18.991Z,98743.87
2018-03-24T01:58:46.456Z,98747.54
2018-03-24T02:01:13.927Z,98743.55
2018-03-24T02:03:41.392Z,98747.62
2018-03-24T02:06:08.872Z,98743.80
2018-03-24T02:08:36.346Z,98746.72
2018-03-24T02:11:03.803Z,98746.33
2018-03-24T02:13:31.277Z,98733.88
2018-03-24T02:15:58.739Z,98728.38
2018-03-24T02:18:26.226Z,98728.50
2018-03-24T02:20:53.683Z,98726.13
2018-03-24T02:23:21.150Z,98728.23
2018-03-24T02:25:48.619Z,98730.22
2018-03-24T02:28:16.094Z,98730.67
2018-03-24T02:30:43.552Z,98725.67
2018-03-24T02:33:11.084Z,98726.02
2018-03-24T02:35:38.618Z,98731.50
2018-03-24T02:38:06.097Z,98725.17
2018-03-24T02:40:33.608Z,98724.88
2018-03-24T02:43:01.085Z,98732.02
2018-03-24T02:45:28.555Z,98732.02
2018-03-24T02:47:56.032Z,98728.30
2018-03-24T02:50:23.504Z,98729.17
2018-03-24T02:52:50.991Z,98728.81
2018-03-24T02:55:18.456Z,98731.16
2018-03-24T02:57:45.930Z,98727.03
2018-03-24T03:00:13.388Z,98725.80
2018-03-24T03:02:40.863Z,98730.38
2018-03-24T03:05:08.323Z,98726.48
2018-03-24T03:07:35.808Z,98728.22
2018-03-24T03:10:03.273Z,98723.06
2018-03-24T03:12:30.757Z,98726.45
2018-03-24T03:14:58.220Z,98730.91
2018-03-24T03:17:25.703Z,98728.25
2018-03-24T03:19:53.175Z,98730.20
2018-03-24T03:22:20.664Z,98728.30
2018-03-24T03:24:48.127Z,98730.63
2018-03-24T03:27:15.619Z,98727.83
2018-03-24T03:29:43.084Z,98730.44
2018-03-24T03:32:16.015Z,98723.52
2018-03-24T03:34:43.478Z,98728.05
2018-03-24T03:37:10.955Z,98730.55
2018-03-24T03:39:38.496Z,98725.55
2018-03-24T03:42:05.943Z,98733.33
2018-03-24T03:44:33.414Z,98733.39
2018-03-24T03:47:00.875Z,98736.63
2018-03-24T03:49:28.350Z,98736.97
2018-03-24T03:51:55.811Z,98744.40
2018-03-24T03:54:23.292Z,98736.90
2018-03-24T03:56:50.748Z,98737.66
2018-03-24T03:59:18.240Z,98734.44
2018-03-24T04:01:45.707Z,98742.41
2018-03-24T04:04:13.183Z,98737.52
2018-03-24T04:06:40.642Z,98731.29
2018-03-24T04:09:08.119Z,98734.95
2018-03-24T04:11:35.578Z,98730.77
2018-03-24T04:14:03.058Z,98739.23
2018-03-24T04:16:30.519Z,98734.16
2018-03-24T04:18:58.009Z,98724.54
2018-03-24T04:21:25.486Z,98727.66
2018-03-24T04:23:52.972Z,98719.20
2018-03-24T04:26:20.426Z,98721.08
2018-03-24T04:28:47.920Z,98717.55
2018-03-24T04:31:15.383Z,98722.94
2018-03-24T04:33:42.870Z,98726.66
2018-03-24T04:36:10.333Z,98728.82
2018-03-24T04:38:37.820Z,98724.16
2018-03-24T04:41:05.275Z,98716.62
2018-03-24T04:43:32.810Z,98720.02
2018-03-24T04:46:00.275Z,98722.80
2018-03-24T04:48:27.759Z,98739.38
2018-03-24T04:50:55.228Z,98728.59
2018-03-24T04:53:22.711Z,98739.05
2018-03-24T04:55:50.183Z,98735.95
2018-03-24T04:58:17.651Z,98730.09
2018-03-24T05:00:45.122Z,98737.87
2018-03-24T05:03:12.583Z,98737.70
2018-03-24T05:05:40.071Z,98735.54
2018-03-24T05:08:07.543Z,98731.19
2018-03-24T05:10:35.019Z,98728.53
2018-03-24T05:13:02.480Z,98729.16
2018-03-24T05:15:29.967Z,98726.43
2018-03-24T05:17:57.424Z,98719.08
2018-03-24T05:20:24.915Z,98714.88
2018-03-24T05:22:52.390Z,98724.16
2018-03-24T05:25:19.863Z,98733.66
2018-03-24T05:27:47.324Z,98732.31
2018-03-24T05:30:14.804Z,98726.78
2018-03-24T05:32:42.259Z,98722.69
2018-03-24T05:35:09.739Z,98728.45
2018-03-24T05:37:37.199Z,98736.94
2018-03-24T05:40:04.693Z,98730.52
2018-03-24T05:42:32.147Z,98729.41
2018-03-24T05:44:59.627Z,98729.64
2018-03-24T05:47:27.084Z,98736.80
2018-03-24T05:49:54.559Z,98730.55
2018-03-24T05:52:22.015Z,98735.77
2018-03-24T05:54:49.491Z,98730.80
2018-03-24T05:57:16.955Z,98732.56
2018-03-24T05:59:44.435Z,98732.50
2018-03-24T06:02:11.896Z,98734.71
2018-03-24T06:04:39.375Z,98737.97
2018-03-24T06:07:06.891Z,98737.05
2018-03-24T06:09:34.332Z,98737.25
2018-03-24T06:12:01.792Z,98742.09
2018-03-24T06:14:29.277Z,98734.77
2018-03-24T06:16:56.734Z,98741.57
2018-03-24T06:19:24.235Z,98737.05
2018-03-24T06:21:51.701Z,98736.19
2018-03-24T06:24:19.169Z,98733.66
2018-03-24T06:26:46.646Z,98735.05
2018-03-24T06:29:14.116Z,98739.61
2018-03-24T06:31:42.519Z,98739.88
2018-03-24T06:34:09.983Z,98742.92
2018-03-24T06:36:37.792Z,98737.65
2018-03-24T06:39:05.252Z,98738.31
2018-03-24T06:41:32.736Z,98737.48
2018-03-24T06:44:00.195Z,98736.27
2018-03-24T06:46:27.686Z,98742.32
2018-03-24T06:48:55.147Z,98735.63
2018-03-24T06:51:22.631Z,98740.53
2018-03-24T06:53:50.088Z,98742.66
2018-03-24T06:56:17.560Z,98748.48
2018-03-24T06:58:45.019Z,98749.56
2018-03-24T07:01:12.491Z,98751.83
2018-03-24T07:03:39.950Z,98758.36
2018-03-24T07:06:07.427Z,98756.86
2018-03-24T07:08:34.944Z,98760.50
2018-03-24T07:11:02.455Z,98759.16
2018-03-24T07:13:29.922Z,98760.78
2018-03-24T07:15:57.407Z,98762.88
2018-03-24T07:18:24.880Z,98767.96
2018-03-24T07:20:52.363Z,98765.38
2018-03-24T07:23:19.823Z,98766.94
2018-03-24T07:25:47.304Z,98761.14
2018-03-24T07:28:14.768Z,98767.39
2018-03-24T07:30:42.243Z,98773.30
2018-03-24T07:33:09.699Z,98770.00
2018-03-24T07:35:37.185Z,98767.85
2018-03-24T07:38:04.657Z,98775.25
2018-03-24T07:40:32.135Z,98775.27
2018-03-24T07:42:59.587Z,98778.49
2018-03-24T07:45:27.097Z,98776.84
2018-03-24T07:47:54.551Z,98784.73
2018-03-24T07:50:22.015Z,98782.88
2018-03-24T07:52:49.503Z,98783.06
2018-03-24T07:55:16.959Z,98784.12
2018-03-24T07:57:44.439Z,98791.64
2018-03-24T08:00:11.909Z,98787.45
2018-03-24T08:02:39.402Z,98790.06
2018-03-24T08:05:06.864Z,98788.04
2018-03-24T08:07:34.341Z,98791.19
2018-03-24T08:10:01.797Z,98791.88
2018-03-24T08:12:29.279Z,98800.97
2018-03-24T08:14:56.743Z,98799.81
2018-03-24T08:17:24.219Z,98797.53
2018-03-24T08:19:51.678Z,98800.91
2018-03-24T08:22:19.151Z,98803.61
2018-03-24T08:24:46.635Z,98804.16
2018-03-24T08:27:14.122Z,98804.97
2018-03-24T08:29:41.579Z,98808.38
2018-03-24T08:32:09.064Z,98810.77
2018-03-24T08:34:36.532Z,98813.33
2018-03-24T08:37:04.009Z,98810.66
2018-03-24T08:39:31.475Z,98809.99
2018-03-24T08:41:58.957Z,98805.50
2018-03-24T08:44:27.128Z,98815.64
2018-03-24T08:46:54.607Z,98817.11
2018-03-24T08:49:22.084Z,98816.42
2018-03-24T08:51:49.568Z,98818.49
2018-03-24T08:54:17.032Z,98814.58
2018-03-24T08:56:44.543Z,98816.31
2018-03-24T08:59:12.020Z,98816.72
2018-03-24T09:01:39.511Z,98813.73
2018-03-24T09:04:06.973Z,98816.69
2018-03-24T09:06:34.447Z,98813.45
2018-03-24T09:09:01.899Z,98818.08
2018-03-24T09:11:29.379Z,98814.39
2018-03-24T09:13:56.839Z,98814.88
2018-03-24T09:16:24.302Z,98818.39
2018-03-24T09:18:51.790Z,98816.62
2018-03-24T09:21:19.251Z,98815.81
2018-03-24T09:23:46.733Z,98814.85
2018-03-24T09:26:14.203Z,98818.04
2018-03-24T09:28:41.701Z,98816.43
2018-03-24T09:31:09.167Z,98812.03
2018-03-24T09:33:37.482Z,98816.41
2018-03-24T09:36:04.943Z,98813.38
2018-03-24T09:38:32.454Z,98813.25
2018-03-24T09:40:59.916Z,98807.72
2018-03-24T09:43:27.425Z,98814.16
2018-03-24T09:45:54.889Z,98813.33
2018-03-24T09:48:22.403Z,98819.09
2018-03-24T09:50:49.872Z,98814.77
2018-03-24T09:53:17.371Z,98811.97
2018-03-24T09:55:44.850Z,98814.91
2018-03-24T09:58:12.342Z,98812.05
2018-03-24T10:00:39.815Z,98811.47
2018-03-24T10:03:07.303Z,98809.42
2018-03-24T10:05:34.764Z,98807.97
2018-03-24T10:08:02.257Z,98806.66
2018-03-24T10:10:29.716Z,98805.72
2018-03-24T10:12:57.484Z,98803.00
2018-03-24T10:15:24.958Z,98803.92
2018-03-24T10:17:52.446Z,98812.06
2018-03-24T10:20:19.932Z,98809.83
2018-03-24T10:25:54.007Z,98804.98
2018-03-24T10:28:21.500Z,98803.84
2018-03-24T10:30:48.967Z,98812.30
2018-03-24T10:33:16.563Z,98801.66
2018-03-24T10:35:44.031Z,98799.77
2018-03-24T10:38:11.535Z,98797.78
2018-03-24T10:40:39.013Z,98798.19
2018-03-24T10:43:11.859Z,98800.12
2018-03-24T10:45:39.350Z,98799.03
2018-03-24T10:48:07.393Z,98798.16
2018-03-24T10:50:34.874Z,98800.14
2018-03-24T10:53:02.336Z,98792.36
2018-03-24T10:55:29.828Z,98792.50
2018-03-24T10:57:57.296Z,98789.09
2018-03-24T11:00:35.339Z,98780.00
2018-03-24T11:03:02.828Z,98780.44
2018-03-24T11:05:30.317Z,98778.02
2018-03-24T11:07:57.793Z,98776.31
2018-03-24T11:10:25.286Z,98777.19
2018-03-24T11:12:52.751Z,98771.75
2018-03-24T11:15:20.230Z,98775.23
2018-03-24T11:17:47.708Z,98779.50
2018-03-24T11:20:15.194Z,98767.77
2018-03-24T11:22:42.663Z,98769.46
2018-03-24T11:25:10.143Z,98767.59
2018-03-24T11:27:37.607Z,98759.27
2018-03-24T11:30:05.092Z,98766.20
2018-03-24T11:32:32.568Z,98758.56
2018-03-24T11:35:00.052Z,98749.38
2018-03-24T11:37:27.519Z,98750.61
2018-03-24T11:39:55.003Z,98752.02
2018-03-24T11:42:22.481Z,98755.48
2018-03-24T11:44:49.973Z,98752.30
2018-03-24T11:47:17.432Z,98751.95
2018-03-24T11:49:44.958Z,98749.62
2018-03-24T11:52:12.451Z,98746.94
2018-03-24T11:54:44.403Z,98748.33
2018-03-24T11:57:11.868Z,98749.27
2018-03-24T11:59:39.360Z,98749.11
2018-03-24T12:02:06.823Z,98745.97
2018-03-24T12:04:34.332Z,98746.03
2018-03-24T12:07:01.801Z,98744.42
2018-03-24T12:09:29.272Z,98747.89
2018-03-24T12:11:56.755Z,98749.33
2018-03-24T12:14:24.223Z,98746.27
2018-03-24T12:16:51.710Z,98743.59
2018-03-24T12:19:20.167Z,98744.88
2018-03-24T12:21:47.650Z,98737.34
2018-03-24T12:24:15.118Z,98741.49
2018-03-24T12:26:42.613Z,98736.37
2018-03-24T12:29:10.124Z,98744.15
2018-03-24T12:31:37.655Z,98741.53
2018-03-24T12:34:05.115Z,98741.69
2018-03-24T12:36:32.665Z,98733.41
2018-03-24T12:39:00.132Z,98735.52
2018-03-24T12:41:27.656Z,98732.38
2018-03-24T12:43:56.759Z,98737.16
2018-03-24T12:46:24.239Z,98738.34
2018-03-24T12:48:51.707Z,98731.27
2018-03-24T12:51:19.195Z,98732.19
2018-03-24T12:53:46.667Z,98735.48
2018-03-24T12:56:14.152Z,98735.06
2018-03-24T12:58:41.603Z,98732.30
2018-03-24T13:01:09.085Z,98732.79
2018-03-24T13:03:36.539Z,98732.33
2018-03-24T13:06:04.011Z,98735.38
2018-03-24T13:08:31.467Z,98724.78
2018-03-24T13:10:58.959Z,98727.72
2018-03-24T13:13:33.821Z,98728.77
2018-03-24T13:16:01.303Z,98730.75
2018-03-24T13:18:28.763Z,98719.23
2018-03-24T13:20:56.243Z,98720.09
2018-03-24T13:23:23.700Z,98719.52
2018-03-24T13:25:51.566Z,98731.98
2018-03-24T13:28:19.020Z,98728.27
2018-03-24T13:30:46.499Z,98729.19
2018-03-24T13:33:13.955Z,98731.56
2018-03-24T13:35:41.419Z,98730.05
2018-03-24T13:38:08.894Z,98733.58
2018-03-24T13:40:36.360Z,98729.67
2018-03-24T13:43:03.841Z,98728.22
2018-03-24T13:45:31.311Z,98732.43
2018-03-24T13:47:58.789Z,98733.61
2018-03-24T13:50:26.247Z,98734.29
2018-03-24T13:52:53.736Z,98722.86
2018-03-24T13:55:21.199Z,98734.88
2018-03-24T13:57:48.690Z,98733.91
2018-03-24T14:00:16.151Z,98732.92
2018-03-24T14:02:43.636Z,98726.20
2018-03-24T14:05:11.099Z,98722.58
2018-03-24T14:07:38.579Z,98720.91
2018-03-24T14:10:06.072Z,98716.45
2018-03-24T14:12:33.555Z,98710.99
2018-03-24T14:15:01.018Z,98718.50
2018-03-24T14:17:28.511Z,98711.52
2018-03-24T14:19:55.968Z,98714.04
2018-03-24T14:22:23.453Z,98723.58
2018-03-24T14:24:50.927Z,98713.85
2018-03-24T14:27:18.421Z,98718.14
2018-03-24T14:29:45.883Z,98713.50
2018-03-24T14:32:13.367Z,98717.39
2018-03-24T14:34:40.835Z,98717.55
2018-03-24T14:37:08.325Z,98722.30
2018-03-24T14:39:35.791Z,98714.34
2018-03-24T14:42:03.285Z,98713.45
2018-03-24T14:44:30.751Z,98704.74
2018-03-24T14:46:58.239Z,98708.15
2018-03-24T14:49:30.481Z,98710.75
2018-03-24T14:51:57.967Z,98706.08
2018-03-24T14:54:25.452Z,98706.93
2018-03-24T14:56:52.928Z,98704.00
2018-03-24T14:59:20.403Z,98701.41
2018-03-24T15:01:47.873Z,98705.16
2018-03-24T15:04:15.363Z,98704.91
2018-03-24T15:06:42.823Z,98702.17
2018-03-24T15:09:10.307Z,98702.23
2018-03-24T15:11:37.775Z,98698.56
2018-03-24T15:14:05.262Z,98703.24
2018-03-24T15:16:32.723Z,98700.39
2018-03-24T15:19:00.206Z,98697.92
2018-03-24T15:21:27.677Z,98700.80
2018-03-24T15:23:55.783Z,98697.76
2018-03-24T15:26:23.253Z,98691.49
2018-03-24T15:32:01.341Z,98685.19
2018-03-24T15:34:40.519Z,98685.06
2018-03-24T15:37:07.981Z,98678.49
2018-03-24T15:39:35.460Z,98675.11
2018-03-24T15:42:02.946Z,98682.72
2018-03-24T15:44:30.428Z,98685.25
2018-03-24T15:46:57.891Z,98682.18
2018-03-24T15:49:25.379Z,98694.27
2018-03-24T15:51:52.843Z,98690.67
2018-03-24T15:54:20.332Z,98699.20
2018-03-24T15:56:47.795Z,98695.17
2018-03-24T15:59:15.275Z,98698.22
2018-03-24T16:01:42.776Z,98697.54
2018-03-24T16:04:10.252Z,98698.91
2018-03-24T16:06:37.717Z,98702.80
2018-03-24T16:09:05.199Z,98703.47
2018-03-24T16:11:32.663Z,98706.39
2018-03-24T16:14:00.143Z,98703.06
2018-03-24T16:16:27.607Z,98705.98
2018-03-24T16:18:55.142Z,98708.98
2018-03-24T16:21:22.621Z,98708.76
2018-03-24T16:23:50.067Z,98709.24
2018-03-24T16:26:17.526Z,98710.36
2018-03-24T16:28:45.009Z,98709.38
2018-03-24T16:31:12.471Z,98716.41
2018-03-24T16:33:39.951Z,98712.36
2018-03-24T16:36:07.404Z,98714.47
2018-03-24T16:38:34.887Z,98714.23
2018-03-24T16:41:02.347Z,98719.88
2018-03-24T16:43:29.823Z,98721.22
2018-03-24T16:45:57.294Z,98719.56
2018-03-24T16:48:24.756Z,98723.39
2018-03-24T16:50:52.234Z,98723.19
2018-03-24T16:53:19.705Z,98730.85
2018-03-24T16:55:47.170Z,98731.59
2018-03-24T16:58:14.634Z,98735.15
2018-03-24T17:00:42.119Z,98732.68
2018-03-24T17:03:09.579Z,98733.86
2018-03-24T17:05:37.064Z,98739.09
2018-03-24T17:08:04.527Z,98739.16
2018-03-24T17:10:32.019Z,98742.23
2018-03-24T17:12:59.829Z,98736.76
2018-03-24T17:15:27.343Z,98742.08
2018-03-24T17:17:54.808Z,98740.81
2018-03-24T17:20:22.288Z,98742.70
2018-03-24T17:22:49.755Z,98754.12
2018-03-24T17:25:17.245Z,98753.00
2018-03-24T17:27:44.715Z,98754.72
2018-03-24T17:30:12.198Z,98756.25
2018-03-24T17:32:39.663Z,98763.41
2018-03-24T17:35:07.145Z,98763.00
2018-03-24T17:37:34.631Z,98768.99
2018-03-24T17:40:02.128Z,98768.21
2018-03-24T17:42:29.591Z,98773.30
2018-03-24T17:44:57.881Z,98772.44
2018-03-24T17:47:25.346Z,98774.90
2018-03-24T17:49:52.819Z,98778.81
2018-03-24T17:52:20.275Z,98775.78
2018-03-24T17:54:47.753Z,98777.03
2018-03-24T17:57:15.223Z,98781.48
2018-03-24T17:59:42.761Z,98788.31
2018-03-24T18:02:10.227Z,98788.36
2018-03-24T18:04:37.715Z,98792.15
2018-03-24T18:07:05.191Z,98797.95
2018-03-24T18:09:32.701Z,98798.09
2018-03-24T18:12:05.610Z,98801.45
2018-03-24T18:14:33.099Z,98800.36
2018-03-24T18:17:00.555Z,98808.32
2018-03-24T18:19:28.019Z,98810.02
2018-03-24T18:21:55.503Z,98810.28
2018-03-24T18:24:22.980Z,98808.25
2018-03-24T18:26:50.473Z,98818.33
2018-03-24T18:29:17.936Z,98824.92
2018-03-24T18:31:46.361Z,98830.97
2018-03-24T18:34:13.819Z,98829.48
2018-03-24T18:36:42.223Z,98830.82
2018-03-24T18:39:09.679Z,98831.35
2018-03-24T18:41:37.151Z,98833.79
2018-03-24T18:44:04.631Z,98832.85
2018-03-24T18:46:33.079Z,98834.56
2018-03-24T18:49:00.551Z,98841.59
2018-03-24T18:51:28.595Z,98838.61
2018-03-24T18:53:56.054Z,98837.27
2018-03-24T18:56:23.668Z,98842.29
2018-03-24T18:58:51.131Z,98834.91
2018-03-24T19:01:18.616Z,98843.53
2018-03-24T19:03:46.080Z,98843.26
2018-03-24T19:06:13.556Z,98846.58
2018-03-24T19:08:46.351Z,98852.75
2018-03-24T19:11:13.828Z,98847.45
2018-03-24T19:13:41.295Z,98856.61
2018-03-24T19:16:08.816Z,98861.20
2018-03-24T19:18:36.279Z,98862.37
2018-03-24T19:21:03.764Z,98869.84
2018-03-24T19:23:31.219Z,98863.16
2018-03-24T19:25:58.701Z,98868.62
2018-03-24T19:28:26.179Z,98868.84
2018-03-24T19:30:53.664Z,98865.43
2018-03-24T19:33:21.124Z,98871.37
2018-03-24T19:35:48.607Z,98869.95
2018-03-24T19:38:16.092Z,98875.63
2018-03-24T19:40:43.592Z,98874.95
2018-03-24T19:43:11.053Z,98875.52
2018-03-24T19:45:38.511Z,98874.08
2018-03-24T19:48:06.048Z,98876.36
2018-03-24T19:50:33.526Z,98879.72
2018-03-24T19:53:01.002Z,98877.59
2018-03-24T19:55:28.478Z,98873.71
2018-03-24T19:57:55.981Z,98876.14
2018-03-24T20:00:23.438Z,98886.07
2018-03-24T20:02:50.921Z,98880.11
2018-03-24T20:05:18.393Z,98882.23
2018-03-24T20:07:45.899Z,98883.97
2018-03-24T20:10:13.355Z,98883.80
2018-03-24T20:12:44.704Z,98882.80
2018-03-24T20:15:12.168Z,98873.97
2018-03-24T20:17:39.655Z,98878.89
2018-03-24T20:20:07.139Z,98873.89
2018-03-24T20:22:34.619Z,98873.60
2018-03-24T20:25:02.083Z,98872.64
2018-03-24T20:27:30.397Z,98876.51
2018-03-24T20:29:57.871Z,98880.91
2018-03-24T20:32:25.352Z,98880.36
2018-03-24T20:34:52.807Z,98882.47
2018-03-24T20:37:20.291Z,98887.26
2018-03-24T20:39:47.750Z,98882.36
2018-03-24T20:42:15.232Z,98883.25
2018-03-24T20:44:42.708Z,98885.17
2018-03-24T20:47:14.219Z,98887.42
2018-03-24T20:49:41.704Z,98884.84
2018-03-24T20:52:09.195Z,98895.99
2018-03-24T20:54:36.659Z,98896.56
2018-03-24T20:57:04.143Z,98899.52
2018-03-24T20:59:31.608Z,98905.91
2018-03-24T21:01:59.091Z,98905.16
2018-03-24T21:04:26.551Z,98907.84
2018-03-24T21:06:54.040Z,98906.30
2018-03-24T21:09:21.499Z,98906.80
2018-03-24T21:11:48.979Z,98909.95
2018-03-24T21:14:16.431Z,98912.16
2018-03-24T21:16:43.888Z,98917.02
2018-03-24T21:19:11.371Z,98919.49
2018-03-24T21:21:38.839Z,98917.28
2018-03-24T21:24:06.331Z,98911.05
2018-03-24T21:26:33.785Z,98924.07
2018-03-24T21:29:01.272Z,98928.88
2018-03-24T21:31:28.755Z,98925.77
2018-03-24T21:33:56.225Z,98926.36
2018-03-24T21:36:23.687Z,98926.50
2018-03-24T21:38:51.230Z,98930.27
2018-03-24T21:41:18.655Z,98933.11
2018-03-24T21:43:46.134Z,98934.11
2018-03-24T21:46:13.591Z,98942.81
2018-03-24T21:48:41.069Z,98942.44
2018-03-24T21:51:08.545Z,98943.39
2018-03-24T21:53:36.032Z,98938.33
2018-03-24T21:56:03.499Z,98941.42
2018-03-24T21:58:30.976Z,98944.81
2018-03-24T22:00:58.815Z,98942.27
2018-03-24T22:03:26.314Z,98941.37
2018-03-24T22:05:53.779Z,98944.10
2018-03-24T22:08:21.260Z,98947.17
2018-03-24T22:10:48.724Z,98945.11
2018-03-24T22:13:16.204Z,98947.53
2018-03-24T22:15:43.658Z,98945.31
2018-03-24T22:18:11.400Z,98946.95
2018-03-24T22:20:38.861Z,98949.63
2018-03-24T22:23:06.343Z,98945.03
2018-03-24T22:25:33.803Z,98944.27
2018-03-24T22:28:01.281Z,98944.34
2018-03-24T22:30:28.741Z,98941.89
2018-03-24T22:32:58.224Z,98944.45
2018-03-24T22:35:25.679Z,98937.70
2018-03-24T22:37:53.135Z,98941.51
2018-03-24T22:40:20.616Z,98945.11
2018-03-24T22:42:48.078Z,98943.48
2018-03-24T22:45:15.604Z,98945.84
2018-03-24T22:47:43.040Z,98944.50
2018-03-24T22:50:10.519Z,98944.44
2018-03-24T22:52:37.983Z,98947.58
2018-03-24T22:55:05.465Z,98944.46
2018-03-24T22:57:32.928Z,98944.34
2018-03-24T23:00:00.411Z,98943.88
2018-03-24T23:02:27.877Z,98948.13
2018-03-24T23:04:55.361Z,98952.44
2018-03-24T23:07:22.827Z,98944.18
2018-03-24T23:09:51.270Z,98938.93
2018-03-24T23:12:18.734Z,98931.77
2018-03-24T23:14:46.219Z,98935.78
2018-03-24T23:17:13.690Z,98934.11
2018-03-24T23:19:41.167Z,98935.86
2018-03-24T23:22:08.662Z,98933.80
2018-03-24T23:24:36.127Z,98942.08
2018-03-24T23:27:03.596Z,98943.26
2018-03-24T23:29:31.075Z,98939.63
2018-03-24T23:31:58.531Z,98941.95
2018-03-24T23:34:26.101Z,98940.09
2018-03-24T23:36:53.483Z,98940.66
2018-03-24T23:39:20.966Z,98944.67
2018-03-24T23:41:48.432Z,98948.61
2018-03-24T23:44:15.917Z,98944.30
2018-03-24T23:46:43.378Z,98946.91
2018-03-24T23:49:10.860Z,98945.30
2018-03-24T23:51:38.329Z,98946.22
2018-03-24T23:54:05.807Z,98944.47
2018-03-24T23:56:33.272Z,98945.73
2018-03-24T23:59:00.754Z,98946.59
